createdAt,value
2022-12-18T00:00:31.538Z,14.80
2022-12-18T00:03:29.007Z,9.30
2022-12-18T00:06:05.394Z,15.10
2022-12-18T00:08:41.706Z,11.50
2022-12-18T00:11:22.498Z,12.00
2022-12-18T00:14:01.710Z,13.80
2022-12-18T00:16:38.328Z,15.70
2022-12-18T00:19:16.480Z,12.10
2022-12-18T00:21:52.544Z,13.50
2022-12-18T00:24:28.790Z,12.10
2022-12-18T00:27:04.965Z,15.10
2022-12-18T00:29:42.438Z,13.10
2022-12-18T00:32:18.724Z,13.30
2022-12-18T00:34:54.680Z,13.30
2022-12-18T00:37:30.658Z,15.40
2022-12-18T00:40:08.547Z,12.70
2022-12-18T00:43:00.023Z,14.20
2022-12-18T00:45:37.170Z,13.80
2022-12-18T00:48:13.288Z,14.80
2022-12-18T00:50:51.095Z,13.50
2022-12-18T00:53:27.161Z,17.00
2022-12-18T00:56:03.008Z,14.40
2022-12-18T00:58:39.059Z,16.20
2022-12-18T01:01:15.667Z,13.60
2022-12-18T01:03:51.933Z,11.90
2022-12-18T01:06:29.793Z,13.70
2022-12-18T01:09:06.160Z,10.00
2022-12-18T01:11:45.149Z,9.90
2022-12-18T01:14:21.237Z,11.30
2022-12-18T01:16:57.115Z,9.60
2022-12-18T01:19:33.159Z,9.20
2022-12-18T01:22:09.218Z,9.50
2022-12-18T01:24:45.074Z,8.80
2022-12-18T01:27:21.049Z,8.50
2022-12-18T01:29:57.788Z,9.10
2022-12-18T01:32:36.254Z,8.80
2022-12-18T01:35:13.945Z,7.40
2022-12-18T01:37:50.008Z,8.60
2022-12-18T01:40:26.275Z,8.90
2022-12-18T01:43:02.298Z,8.50
2022-12-18T01:45:38.280Z,8.70
2022-12-18T01:48:14.554Z,8.30
2022-12-18T01:50:51.374Z,9.90
2022-12-18T01:53:28.880Z,8.80
2022-12-18T01:56:05.568Z,7.90
2022-12-18T01:58:52.570Z,10.30
2022-12-18T02:01:31.394Z,7.10
2022-12-18T02:04:29.243Z,9.40
2022-12-18T02:07:19.235Z,9.40
2022-12-18T02:10:01.254Z,9.50
2022-12-18T02:12:50.581Z,8.20
2022-12-18T02:15:38.509Z,10.20
2022-12-18T02:18:21.427Z,9.80
2022-12-18T02:21:14.898Z,8.70
2022-12-18T02:24:05.983Z,8.90
2022-12-18T02:26:50.744Z,8.70
2022-12-18T02:29:31.888Z,9.80
2022-12-18T02:32:15.938Z,9.60
2022-12-18T02:34:55.325Z,8.30
2022-12-18T02:37:35.045Z,8.70
2022-12-18T02:40:16.290Z,8.90
2022-12-18T02:42:52.274Z,9.50
2022-12-18T02:45:28.254Z,9.70
2022-12-18T02:48:04.882Z,7.90
2022-12-18T02:50:53.280Z,6.40
2022-12-18T02:53:40.257Z,7.60
2022-12-18T02:56:23.647Z,8.20
2022-12-18T02:59:08.536Z,7.80
2022-12-18T03:02:01.275Z,6.80
2022-12-18T03:04:49.919Z,8.30
2022-12-18T03:07:40.193Z,8.60
2022-12-18T03:10:26.571Z,7.90
2022-12-18T03:13:08.030Z,8.40
2022-12-18T03:15:50.243Z,8.30
2022-12-18T03:18:32.583Z,8.70
2022-12-18T03:21:12.777Z,7.80
2022-12-18T03:23:53.799Z,8.60
2022-12-18T03:26:31.804Z,8.80
2022-12-18T03:29:16.153Z,10.50
2022-12-18T03:31:58.810Z,9.30
2022-12-18T03:34:40.595Z,10.70
2022-12-18T03:37:17.431Z,10.10
2022-12-18T03:39:53.970Z,11.30
2022-12-18T03:42:41.330Z,10.30
2022-12-18T03:45:29.511Z,11.60
2022-12-18T03:48:16.835Z,12.30
2022-12-18T03:51:01.791Z,13.50
2022-12-18T03:53:52.120Z,11.00
2022-12-18T03:56:34.068Z,11.90
2022-12-18T03:59:12.439Z,11.50
2022-12-18T04:01:54.743Z,11.00
2022-12-18T04:04:34.856Z,11.30
2022-12-18T04:07:14.887Z,10.90
2022-12-18T04:09:56.130Z,11.40
2022-12-18T04:12:34.257Z,11.40
2022-12-18T04:15:13.721Z,12.40
2022-12-18T04:17:53.104Z,13.40
2022-12-18T04:20:31.645Z,12.00
2022-12-18T04:23:08.266Z,13.10
2022-12-18T04:25:44.332Z,15.90
2022-12-18T04:28:24.477Z,14.70
2022-12-18T04:31:00.312Z,13.40
2022-12-18T04:33:37.231Z,14.10
2022-12-18T04:36:14.449Z,15.70
2022-12-18T04:38:51.003Z,16.10
2022-12-18T04:41:26.923Z,13.70
2022-12-18T04:44:02.871Z,12.90
2022-12-18T04:46:38.857Z,13.00
2022-12-18T04:49:15.647Z,12.10
2022-12-18T04:51:51.962Z,13.60
2022-12-18T04:54:27.888Z,12.40
2022-12-18T04:57:04.021Z,11.60
2022-12-18T04:59:40.051Z,12.00
2022-12-18T05:02:16.054Z,12.30
2022-12-18T05:04:52.462Z,12.40
2022-12-18T05:07:28.537Z,13.90
2022-12-18T05:10:04.800Z,11.80
2022-12-18T05:12:56.108Z,11.80
2022-12-18T05:15:35.054Z,13.90
2022-12-18T05:18:11.287Z,13.60
2022-12-18T05:20:47.252Z,12.30
2022-12-18T05:23:25.024Z,13.30
2022-12-18T05:26:04.348Z,14.70
2022-12-18T05:28:41.252Z,12.30
2022-12-18T05:31:17.605Z,14.30
2022-12-18T05:33:56.246Z,9.90
2022-12-18T05:36:32.182Z,13.00
2022-12-18T05:39:08.906Z,13.60
2022-12-18T05:41:44.786Z,13.70
2022-12-18T05:44:20.797Z,13.00
2022-12-18T05:46:57.073Z,11.70
2022-12-18T05:49:33.116Z,12.00
2022-12-18T05:52:10.043Z,13.50
2022-12-18T05:54:46.046Z,13.60
2022-12-18T05:57:22.013Z,15.20
2022-12-18T05:59:57.861Z,13.80
2022-12-18T06:02:33.818Z,10.10
2022-12-18T06:05:12.160Z,13.90
2022-12-18T06:07:48.087Z,11.50
2022-12-18T06:10:24.209Z,12.30
2022-12-18T06:13:00.003Z,13.00
2022-12-18T06:15:38.275Z,12.70
2022-12-18T06:18:14.119Z,9.20
2022-12-18T06:20:58.379Z,11.90
2022-12-18T06:23:34.253Z,14.90
2022-12-18T06:26:14.708Z,11.00
2022-12-18T06:28:50.887Z,13.00
2022-12-18T06:31:27.409Z,11.40
2022-12-18T06:34:05.932Z,11.30
2022-12-18T06:36:41.825Z,10.80
2022-12-18T06:39:17.883Z,12.60
2022-12-18T06:41:53.831Z,14.60
2022-12-18T06:44:29.896Z,13.10
2022-12-18T06:47:05.834Z,12.10
2022-12-18T06:49:41.808Z,11.90
2022-12-18T06:52:17.785Z,13.10
2022-12-18T06:54:53.725Z,13.70
2022-12-18T06:57:30.174Z,13.90
2022-12-18T07:00:08.814Z,13.40
2022-12-18T07:02:44.948Z,12.10
2022-12-18T07:05:21.367Z,13.70
2022-12-18T07:07:57.222Z,14.80
2022-12-18T07:10:33.150Z,15.20
2022-12-18T07:13:08.958Z,12.80
2022-12-18T07:15:44.888Z,14.80
2022-12-18T07:18:21.340Z,13.70
2022-12-18T07:20:57.256Z,13.60
2022-12-18T07:23:33.884Z,12.60
2022-12-18T07:26:13.326Z,14.30
2022-12-18T07:28:49.654Z,10.40
2022-12-18T07:31:28.164Z,12.20
2022-12-18T07:34:04.234Z,14.30
2022-12-18T07:36:40.229Z,13.80
2022-12-18T07:39:17.677Z,12.30
2022-12-18T07:42:07.405Z,13.80
2022-12-18T07:44:43.535Z,14.00
2022-12-18T07:47:19.517Z,13.70
2022-12-18T07:49:55.573Z,15.00
2022-12-18T07:52:31.628Z,16.40
2022-12-18T07:55:09.449Z,14.70
2022-12-18T07:57:55.426Z,15.80
2022-12-18T08:00:33.002Z,16.70
2022-12-18T08:03:08.867Z,15.80
2022-12-18T08:05:44.752Z,16.80
2022-12-18T08:08:20.713Z,16.90
2022-12-18T08:10:56.768Z,16.90
2022-12-18T08:13:33.360Z,15.30
2022-12-18T08:16:11.938Z,16.00
2022-12-18T08:18:47.868Z,14.80
2022-12-18T08:21:27.613Z,15.40
2022-12-18T08:24:05.268Z,14.00
2022-12-18T08:26:41.228Z,14.80
2022-12-18T08:29:21.478Z,16.10
2022-12-18T08:31:57.641Z,14.70
2022-12-18T08:34:33.701Z,15.50
2022-12-18T08:37:09.657Z,15.80
2022-12-18T08:39:45.814Z,14.20
2022-12-18T08:42:39.443Z,34.80
2022-12-18T08:45:16.177Z,16.00
2022-12-18T08:47:52.513Z,14.70
2022-12-18T08:50:28.396Z,15.30
2022-12-18T08:53:04.646Z,13.70
2022-12-18T08:55:41.448Z,15.30
2022-12-18T08:58:19.012Z,15.90
2022-12-18T09:00:55.323Z,15.30
2022-12-18T09:03:31.792Z,14.40
2022-12-18T09:06:09.110Z,15.00
2022-12-18T09:08:45.193Z,15.40
2022-12-18T09:11:29.922Z,14.00
2022-12-18T09:14:06.557Z,16.10
2022-12-18T09:16:42.962Z,16.10
2022-12-18T09:19:20.375Z,15.10
2022-12-18T09:21:56.326Z,15.10
2022-12-18T09:24:32.291Z,16.30
2022-12-18T09:27:08.345Z,16.60
2022-12-18T09:29:44.714Z,16.20
2022-12-18T09:32:22.578Z,14.60
2022-12-18T09:34:58.799Z,16.30
2022-12-18T09:37:34.737Z,15.00
2022-12-18T09:40:20.252Z,15.70
2022-12-18T09:43:02.832Z,14.40
2022-12-18T09:45:47.077Z,15.70
2022-12-18T09:48:32.554Z,15.50
2022-12-18T09:51:17.906Z,16.30
2022-12-18T09:54:03.887Z,16.20
2022-12-18T09:56:46.552Z,16.20
2022-12-18T09:59:34.551Z,15.90
2022-12-18T10:02:26.310Z,16.10
2022-12-18T10:08:05.984Z,15.80
2022-12-18T10:10:49.417Z,16.30
2022-12-18T10:13:41.418Z,18.40
2022-12-18T10:19:39.102Z,15.10
2022-12-18T10:22:37.677Z,15.70
2022-12-18T10:25:27.741Z,17.20
2022-12-18T10:28:16.049Z,15.00
2022-12-18T10:30:52.216Z,18.50
2022-12-18T10:33:33.512Z,16.90
2022-12-18T10:36:11.392Z,18.40
2022-12-18T10:38:48.743Z,16.70
2022-12-18T10:41:33.866Z,17.30
2022-12-18T10:44:26.870Z,17.00
2022-12-18T10:47:16.461Z,15.60
2022-12-18T10:49:58.409Z,17.00
2022-12-18T10:52:35.029Z,15.30
2022-12-18T10:55:21.895Z,15.70
2022-12-18T10:58:22.162Z,15.90
2022-12-18T11:01:17.917Z,18.70
2022-12-18T11:04:18.500Z,19.30
2022-12-18T11:07:04.564Z,19.60
2022-12-18T11:09:43.740Z,16.20
2022-12-18T11:12:26.440Z,17.30
2022-12-18T11:17:40.399Z,13.30
2022-12-18T11:20:36.243Z,14.60
2022-12-18T11:23:19.221Z,14.60
2022-12-18T11:26:04.388Z,15.10
2022-12-18T11:28:48.605Z,14.70
2022-12-18T11:31:32.442Z,14.90
2022-12-18T11:34:34.274Z,14.10
2022-12-18T11:37:13.712Z,13.10
2022-12-18T11:39:55.265Z,14.70
2022-12-18T11:42:41.597Z,13.40
2022-12-18T11:45:37.488Z,13.80
2022-12-18T11:48:23.687Z,14.00
2022-12-18T11:51:01.949Z,12.60
2022-12-18T11:53:39.272Z,14.10
2022-12-18T11:56:34.795Z,13.70
2022-12-18T11:59:32.608Z,13.70
2022-12-18T12:02:39.471Z,12.80
2022-12-18T12:05:48.791Z,14.00
2022-12-18T12:08:40.094Z,14.00
2022-12-18T12:11:29.600Z,15.90
2022-12-18T12:14:33.830Z,13.50
2022-12-18T12:17:22.478Z,13.20
2022-12-18T12:20:10.026Z,12.40
2022-12-18T12:23:02.627Z,27.60
2022-12-18T12:25:50.589Z,16.50
2022-12-18T12:29:00.105Z,13.10
2022-12-18T12:31:58.611Z,13.10
2022-12-18T12:34:47.550Z,14.00
2022-12-18T12:37:41.056Z,13.20
2022-12-18T12:40:51.388Z,14.20
2022-12-18T12:43:40.410Z,13.80
2022-12-18T12:46:23.996Z,13.50
2022-12-18T12:49:07.371Z,13.40
2022-12-18T12:51:49.186Z,12.50
2022-12-18T12:57:14.154Z,12.10
2022-12-18T13:00:07.473Z,13.50
2022-12-18T13:02:53.492Z,13.30
2022-12-18T13:05:41.702Z,14.80
2022-12-18T13:08:33.279Z,14.80
2022-12-18T13:11:59.795Z,13.60
2022-12-18T13:14:40.179Z,12.70
2022-12-18T13:17:34.751Z,14.50
2022-12-18T13:20:17.801Z,18.80
2022-12-18T13:22:56.514Z,16.80
2022-12-18T13:25:39.657Z,16.10
2022-12-18T13:28:18.879Z,15.60
2022-12-18T13:31:01.530Z,14.20
2022-12-18T13:34:24.292Z,14.10
2022-12-18T13:36:44.818Z,14.90
2022-12-18T13:39:38.528Z,13.90
2022-12-18T13:43:06.185Z,12.90
2022-12-18T13:46:04.043Z,13.40
2022-12-18T13:48:50.773Z,13.50
2022-12-18T13:51:29.885Z,12.80
2022-12-18T13:54:19.878Z,14.90
2022-12-18T13:56:56.148Z,25.30
2022-12-18T13:59:39.874Z,16.50
2022-12-18T14:02:23.720Z,15.80
2022-12-18T14:05:00.322Z,14.60
2022-12-18T14:07:41.794Z,17.30
2022-12-18T14:13:30.144Z,17.10
2022-12-18T14:16:10.107Z,15.50
2022-12-18T14:18:56.369Z,14.60
2022-12-18T14:21:39.780Z,17.10
2022-12-18T14:24:23.678Z,15.90
2022-12-18T14:27:23.005Z,16.00
2022-12-18T14:29:59.344Z,17.20
2022-12-18T14:32:35.124Z,17.50
2022-12-18T14:35:21.938Z,18.10
2022-12-18T14:38:20.516Z,17.00
2022-12-18T14:41:02.903Z,16.30
2022-12-18T14:43:43.120Z,16.20
2022-12-18T14:46:45.337Z,16.80
2022-12-18T14:49:33.681Z,15.40
2022-12-18T14:52:31.814Z,17.40
2022-12-18T14:55:16.155Z,25.00
2022-12-18T14:57:57.535Z,23.00
2022-12-18T15:00:34.100Z,17.00
2022-12-18T15:03:15.466Z,16.60
2022-12-18T15:05:52.294Z,16.40
2022-12-18T15:08:41.870Z,16.50
2022-12-18T15:14:43.389Z,20.20
2022-12-18T15:17:26.714Z,18.40
2022-12-18T15:20:15.662Z,17.90
2022-12-18T15:22:52.535Z,16.40
2022-12-18T15:25:39.647Z,18.40
2022-12-18T15:28:27.859Z,28.30
2022-12-18T15:31:30.833Z,20.30
2022-12-18T15:34:23.698Z,18.20
2022-12-18T15:37:00.146Z,16.80
2022-12-18T15:39:37.205Z,18.30
2022-12-18T15:42:33.162Z,22.40
2022-12-18T15:45:14.617Z,21.40
2022-12-18T15:47:50.794Z,24.90
2022-12-18T15:50:27.383Z,24.00
2022-12-18T15:53:05.178Z,23.90
2022-12-18T15:56:01.375Z,21.30
2022-12-18T15:58:37.435Z,21.10
2022-12-18T16:01:15.475Z,23.50
2022-12-18T16:03:51.894Z,33.00
2022-12-18T16:06:36.359Z,27.40
2022-12-18T16:09:26.070Z,20.30
2022-12-18T16:12:02.491Z,21.30
2022-12-18T16:14:39.338Z,22.40
2022-12-18T16:17:18.335Z,20.30
2022-12-18T16:19:54.707Z,21.70
2022-12-18T16:22:34.124Z,22.00
2022-12-18T16:25:18.264Z,20.10
2022-12-18T16:27:56.790Z,21.00
2022-12-18T16:30:38.144Z,19.00
2022-12-18T16:33:15.368Z,18.60
2022-12-18T16:35:59.387Z,18.40
2022-12-18T16:38:36.049Z,20.90
2022-12-18T16:41:36.519Z,23.40
2022-12-18T16:44:13.707Z,18.60
2022-12-18T16:46:50.184Z,19.70
2022-12-18T16:49:26.591Z,19.00
2022-12-18T16:52:02.916Z,18.90
2022-12-18T16:54:39.721Z,19.20
2022-12-18T16:57:20.437Z,19.10
2022-12-18T17:02:43.635Z,15.10
2022-12-18T17:05:20.138Z,17.10
2022-12-18T17:07:56.709Z,21.10
2022-12-18T17:10:32.760Z,22.10
2022-12-18T17:13:08.751Z,19.60
2022-12-18T17:15:44.757Z,19.60
2022-12-18T17:18:21.646Z,17.40
2022-12-18T17:21:02.134Z,16.90
2022-12-18T17:23:38.751Z,18.70
2022-12-18T17:26:16.335Z,19.40
2022-12-18T17:28:52.957Z,21.00
2022-12-18T17:31:31.845Z,19.40
2022-12-18T17:34:09.749Z,17.60
2022-12-18T17:36:46.176Z,19.40
2022-12-18T17:39:24.773Z,18.30
2022-12-18T17:42:01.366Z,19.20
2022-12-18T17:44:37.787Z,21.60
2022-12-18T17:47:14.229Z,19.10
2022-12-18T17:49:51.459Z,18.50
2022-12-18T17:52:28.059Z,19.20
2022-12-18T17:55:04.379Z,21.10
2022-12-18T17:57:41.017Z,21.70
2022-12-18T18:00:20.842Z,21.00
2022-12-18T18:02:57.090Z,24.60
2022-12-18T18:05:34.310Z,27.90
2022-12-18T18:08:11.401Z,28.20
2022-12-18T18:10:49.245Z,24.00
2022-12-18T18:13:47.113Z,22.30
2022-12-18T18:16:23.499Z,18.00
2022-12-18T18:19:02.164Z,20.40
2022-12-18T18:21:42.026Z,21.20
2022-12-18T18:24:23.530Z,18.60
2022-12-18T18:27:02.644Z,20.10
2022-12-18T18:29:38.789Z,18.90
2022-12-18T18:32:14.747Z,19.20
2022-12-18T18:34:50.628Z,18.80
2022-12-18T18:37:27.389Z,22.40
2022-12-18T18:40:03.888Z,23.00
2022-12-18T18:42:39.924Z,21.90
2022-12-18T18:45:17.021Z,23.50
2022-12-18T18:47:53.716Z,22.20
2022-12-18T18:50:29.843Z,20.60
2022-12-18T18:53:05.937Z,19.40
2022-12-18T18:55:42.464Z,20.50
2022-12-18T18:58:18.827Z,20.60
2022-12-18T19:01:05.216Z,21.00
2022-12-18T19:03:43.906Z,32.90
2022-12-18T19:06:24.515Z,21.80
2022-12-18T19:09:02.459Z,20.10
2022-12-18T19:11:56.429Z,20.20
2022-12-18T19:14:32.437Z,20.30
2022-12-18T19:17:09.317Z,20.20
2022-12-18T19:19:46.188Z,20.30
2022-12-18T19:22:23.069Z,20.70
2022-12-18T19:24:59.025Z,17.90
2022-12-18T19:27:36.622Z,19.30
2022-12-18T19:30:15.781Z,18.40
2022-12-18T19:32:51.703Z,17.80
2022-12-18T19:35:30.631Z,17.60
2022-12-18T19:38:06.918Z,17.30
2022-12-18T19:40:47.252Z,16.10
2022-12-18T19:43:23.489Z,15.30
2022-12-18T19:46:01.832Z,17.50
2022-12-18T19:48:40.017Z,16.10
2022-12-18T19:51:20.904Z,15.10
2022-12-18T19:54:00.515Z,16.00
2022-12-18T19:56:39.989Z,15.70
2022-12-18T19:59:16.729Z,19.50
2022-12-18T20:01:54.525Z,16.30
2022-12-18T20:04:32.208Z,19.00
2022-12-18T20:07:09.843Z,19.10
2022-12-18T20:09:46.137Z,19.40
2022-12-18T20:12:23.289Z,17.60
2022-12-18T20:15:00.027Z,31.60
2022-12-18T20:17:39.295Z,22.00
2022-12-18T20:20:17.772Z,18.00
2022-12-18T20:22:54.485Z,18.10
2022-12-18T20:25:30.438Z,19.40
2022-12-18T20:28:06.506Z,17.20
2022-12-18T20:30:43.085Z,17.30
2022-12-18T20:33:19.381Z,16.90
2022-12-18T20:35:55.439Z,16.80
2022-12-18T20:38:32.809Z,15.60
2022-12-18T20:41:18.871Z,17.00
2022-12-18T20:43:54.932Z,18.50
2022-12-18T20:46:33.532Z,17.80
2022-12-18T20:49:10.119Z,15.20
2022-12-18T20:51:49.102Z,15.70
2022-12-18T20:54:29.238Z,16.20
2022-12-18T20:57:07.416Z,16.40
2022-12-18T20:59:48.143Z,15.50
2022-12-18T21:02:25.700Z,17.70
2022-12-18T21:05:01.928Z,16.00
2022-12-18T21:07:38.041Z,16.70
2022-12-18T21:10:15.464Z,16.20
2022-12-18T21:12:59.995Z,16.20
2022-12-18T21:15:38.293Z,17.10
2022-12-18T21:18:14.296Z,16.70
2022-12-18T21:20:50.662Z,14.40
2022-12-18T21:23:26.560Z,15.00
2022-12-18T21:26:22.612Z,16.00
2022-12-18T21:29:02.925Z,16.30
2022-12-18T21:31:43.486Z,16.70
2022-12-18T21:34:25.526Z,15.90
2022-12-18T21:37:03.924Z,13.80
2022-12-18T21:39:40.120Z,15.30
2022-12-18T21:42:34.801Z,14.70
2022-12-18T21:45:13.236Z,18.00
2022-12-18T21:47:49.157Z,13.90
2022-12-18T21:50:25.130Z,17.20
2022-12-18T21:53:01.285Z,16.30
2022-12-18T21:55:37.149Z,15.60
2022-12-18T21:58:13.176Z,15.50
2022-12-18T22:00:50.620Z,17.30
2022-12-18T22:03:27.014Z,19.40
2022-12-18T22:06:09.283Z,16.70
2022-12-18T22:08:46.155Z,19.00
2022-12-18T22:11:22.236Z,17.50
2022-12-18T22:13:59.286Z,16.90
2022-12-18T22:16:35.287Z,16.40
2022-12-18T22:19:13.144Z,16.20
2022-12-18T22:21:52.897Z,17.40
2022-12-18T22:24:30.424Z,17.70
2022-12-18T22:27:06.466Z,17.20
2022-12-18T22:30:00.158Z,18.70
2022-12-18T22:32:37.580Z,17.10
2022-12-18T22:35:16.244Z,16.90
2022-12-18T22:37:52.366Z,18.00
2022-12-18T22:40:30.073Z,16.70
2022-12-18T22:43:06.426Z,17.80
2022-12-18T22:45:42.479Z,18.10
2022-12-18T22:48:18.563Z,17.90
2022-12-18T22:50:58.981Z,18.10
2022-12-18T22:53:35.576Z,20.10
2022-12-18T22:56:18.669Z,16.80
2022-12-18T22:58:58.335Z,16.90
2022-12-18T23:01:36.190Z,18.80
2022-12-18T23:04:15.236Z,17.10
2022-12-18T23:06:51.404Z,17.90
2022-12-18T23:09:27.163Z,18.00
2022-12-18T23:12:03.671Z,14.70
2022-12-18T23:14:39.519Z,16.10
2022-12-18T23:17:15.678Z,16.00
2022-12-18T23:19:51.763Z,17.30
2022-12-18T23:22:27.743Z,15.80
2022-12-18T23:25:03.530Z,16.30
2022-12-18T23:27:39.588Z,15.90
2022-12-18T23:30:17.779Z,17.60
2022-12-18T23:32:53.811Z,16.50
2022-12-18T23:35:30.632Z,15.80
2022-12-18T23:38:07.201Z,16.20
2022-12-18T23:40:43.157Z,15.80
2022-12-18T23:43:22.036Z,15.40
2022-12-18T23:45:58.085Z,16.40
2022-12-18T23:48:33.941Z,15.70
2022-12-18T23:51:15.097Z,16.10
2022-12-18T23:53:51.305Z,16.90
2022-12-18T23:56:28.851Z,16.60
2022-12-18T23:59:04.857Z,17.00
